sensor_id;sensor_type;location;lat;lon;timestamp;P1;P2;P0
47709;PMS7003;33473;51.640;5.892;2023-07-20T00:10:31;7.21;9.71;6.88
47709;PMS7003;33473;51.640;5.892;2023-07-20T00:23:51;8.29;10.47;7.53
47709;PMS7003;33473;51.640;5.892;2023-07-20T00:37:11;8.41;10.8;7.97
47709;PMS7003;33473;51.640;5.892;2023-07-20T00:50:32;8.05;10.58;7.97
47709;PMS7003;33473;51.640;5.892;2023-07-20T01:03:51;9.85;11.89;8.51
47709;PMS7003;33473;51.640;5.892;2023-07-20T01:17:13;10.09;11.67;8.51
47709;PMS7003;33473;51.640;5.892;2023-07-20T01:30:34;9.73;12.11;8.84
47709;PMS7003;33473;51.640;5.892;2023-07-20T01:43:54;10.81;12.98;9.27
47709;PMS7003;33473;51.640;5.892;2023-07-20T01:57:13;9.85;12.22;8.73
47709;PMS7003;33473;51.640;5.892;2023-07-20T02:10:35;12.25;14.4;9.93
47709;PMS7003;33473;51.640;5.892;2023-07-20T02:23:56;12.49;14.51;10.91
47709;PMS7003;33473;51.640;5.892;2023-07-20T02:37:15;15.97;17.34;12.22
47709;PMS7003;33473;51.640;5.892;2023-07-20T02:50:37;15.37;16.9;12.22
47709;PMS7003;33473;51.640;5.892;2023-07-20T03:03:56;14.05;15.81;11.45
47709;PMS7003;33473;51.640;5.892;2023-07-20T03:17:16;13.33;15.16;11.13
47709;PMS7003;33473;51.640;5.892;2023-07-20T03:30:37;8.53;10.47;8.08
47709;PMS7003;33473;51.640;5.892;2023-07-20T03:43:57;8.29;10.69;7.86
47709;PMS7003;33473;51.640;5.892;2023-07-20T03:57:18;10.57;12.44;9.06
47709;PMS7003;33473;51.640;5.892;2023-07-20T04:10:38;11.77;13.96;10.36
47709;PMS7003;33473;51.640;5.892;2023-07-20T04:23:59;12.97;13.74;10.15
47709;PMS7003;33473;51.640;5.892;2023-07-20T04:37:19;11.29;12.98;9.38
47709;PMS7003;33473;51.640;5.892;2023-07-20T04:50:39;8.29;10.69;8.08
47709;PMS7003;33473;51.640;5.892;2023-07-20T05:03:58;9.61;11.89;8.84
47709;PMS7003;33473;51.640;5.892;2023-07-20T05:17:18;11.17;13.42;10.04
47709;PMS7003;33473;51.640;5.892;2023-07-20T05:30:39;11.89;13.31;10.04
47709;PMS7003;33473;51.640;5.892;2023-07-20T05:44:00;14.05;14.94;11.13
47709;PMS7003;33473;51.640;5.892;2023-07-20T05:57:20;9.49;11.02;8.73
47709;PMS7003;33473;51.640;5.892;2023-07-20T06:10:41;8.29;10.04;7.86
47709;PMS7003;33473;51.640;5.892;2023-07-20T06:24:03;7.69;9.71;8.08
47709;PMS7003;33473;51.640;5.892;2023-07-20T06:37:24;8.05;10.58;8.18
47709;PMS7003;33473;51.640;5.892;2023-07-20T06:50:44;7.69;10.15;7.86
47709;PMS7003;33473;51.640;5.892;2023-07-20T07:04:05;7.45;10.04;8.08
47709;PMS7003;33473;51.640;5.892;2023-07-20T07:17:26;4.69;7.42;5.68
47709;PMS7003;33473;51.640;5.892;2023-07-20T07:30:46;3.85;6.22;4.8
47709;PMS7003;33473;51.640;5.892;2023-07-20T07:44:06;3.0;6.0;4.7
47709;PMS7003;33473;51.640;5.892;2023-07-20T07:57:25;0.36;3.61;2.95
47709;PMS7003;33473;51.640;5.892;2023-07-20T08:10:45;0.24;3.28;2.73
47709;PMS7003;33473;51.640;5.892;2023-07-20T08:24:06;0.12;3.28;2.62
47709;PMS7003;33473;51.640;5.892;2023-07-20T08:37:26;0.01;2.95;2.62
47709;PMS7003;33473;51.640;5.892;2023-07-20T08:50:47;0.01;2.84;2.3
47709;PMS7003;33473;51.640;5.892;2023-07-20T09:04:08;0.01;2.41;2.08
47709;PMS7003;33473;51.640;5.892;2023-07-20T09:17:29;0.01;2.3;1.86
47709;PMS7003;33473;51.640;5.892;2023-07-20T09:30:49;0.01;2.52;2.08
47709;PMS7003;33473;51.640;5.892;2023-07-20T09:44:09;0.01;1.43;
47709;PMS7003;33473;51.640;5.892;2023-07-20T09:57:28;0.01;2.41;1.97
47709;PMS7003;33473;51.640;5.892;2023-07-20T10:24:11;0.01;2.3;2.19
47709;PMS7003;33473;51.640;5.892;2023-07-20T10:37:30;0.01;2.41;2.08
47709;PMS7003;33473;51.640;5.892;2023-07-20T10:50:51;0.01;2.41;2.19
47709;PMS7003;33473;51.640;5.892;2023-07-20T11:04:13;0.01;2.73;2.41
47709;PMS7003;33473;51.640;5.892;2023-07-20T11:17:34;0.6;3.82;3.06
47709;PMS7003;33473;51.640;5.892;2023-07-20T11:30:55;0.48;3.71;2.95
47709;PMS7003;33473;51.640;5.892;2023-07-20T11:44:15;1.2;3.82;3.06
47709;PMS7003;33473;51.640;5.892;2023-07-20T11:57:36;1.32;4.48;3.61
47709;PMS7003;33473;51.640;5.892;2023-07-20T12:10:57;0.96;3.93;3.17
47709;PMS7003;33473;51.640;5.892;2023-07-20T12:24:18;0.84;3.93;3.28
47709;PMS7003;33473;51.640;5.892;2023-07-20T12:37:40;0.48;3.61;3.06
47709;PMS7003;33473;51.640;5.892;2023-07-20T12:51:01;1.2;4.37;3.28
47709;PMS7003;33473;51.640;5.892;2023-07-20T13:04:22;0.84;4.04;3.39
47709;PMS7003;33473;51.640;5.892;2023-07-20T13:17:43;0.96;4.15;3.39
47709;PMS7003;33473;51.640;5.892;2023-07-20T13:31:04;2.04;4.15;3.5
47709;PMS7003;33473;51.640;5.892;2023-07-20T13:44:26;0.12;3.39;2.95
47709;PMS7003;33473;51.640;5.892;2023-07-20T13:57:47;0.01;2.84;2.19
47709;PMS7003;33473;51.640;5.892;2023-07-20T14:11:06;0.01;2.95;2.62
47709;PMS7003;33473;51.640;5.892;2023-07-20T14:24:28;0.84;4.04;3.28
47709;PMS7003;33473;51.640;5.892;2023-07-20T14:37:49;2.04;5.02;4.15
47709;PMS7003;33473;51.640;5.892;2023-07-20T14:51:10;1.08;4.26;3.5
47709;PMS7003;33473;51.640;5.892;2023-07-20T15:04:30;0.24;3.5;2.84
47709;PMS7003;33473;51.640;5.892;2023-07-20T15:17:49;0.12;3.28;2.73
47709;PMS7003;33473;51.640;5.892;2023-07-20T15:31:11;0.6;3.71;2.95
47709;PMS7003;33473;51.640;5.892;2023-07-20T15:44:32;0.01;2.41;1.86
47709;PMS7003;33473;51.640;5.892;2023-07-20T15:57:51;0.01;2.08;1.75
47709;PMS7003;33473;51.640;5.892;2023-07-20T16:11:11;0.01;2.62;2.19
47709;PMS7003;33473;51.640;5.892;2023-07-20T16:24:32;0.01;2.62;2.08
47709;PMS7003;33473;51.640;5.892;2023-07-20T16:37:52;0.01;2.3;1.86
47709;PMS7003;33473;51.640;5.892;2023-07-20T16:51:12;0.01;2.62;2.08
47709;PMS7003;33473;51.640;5.892;2023-07-20T17:04:33;0.72;2.52;2.19
47709;PMS7003;33473;51.640;5.892;2023-07-20T17:17:54;1.8;4.91;4.15
47709;PMS7003;33473;51.640;5.892;2023-07-20T17:31:15;3.0;6.0;4.91
47709;PMS7003;33473;51.640;5.892;2023-07-20T17:44:35;2.16;5.24;4.59
47709;PMS7003;33473;51.640;5.892;2023-07-20T17:57:54;2.04;5.13;4.37
47709;PMS7003;33473;51.640;5.892;2023-07-20T18:11:14;4.69;7.53;6.22
47709;PMS7003;33473;51.640;5.892;2023-07-20T18:24:35;3.24;6.22;5.24
47709;PMS7003;33473;51.640;5.892;2023-07-20T18:37:57;2.28;5.35;4.59
47709;PMS7003;33473;51.640;5.892;2023-07-20T18:51:16;4.09;6.99;5.46
47709;PMS7003;33473;51.640;5.892;2023-07-20T19:04:37;4.57;7.42;5.79
47709;PMS7003;33473;51.640;5.892;2023-07-20T19:17:57;4.45;6.44;5.13
47709;PMS7003;33473;51.640;5.892;2023-07-20T19:31:18;3.6;6.44;5.57
47709;PMS7003;33473;51.640;5.892;2023-07-20T19:44:39;5.05;7.86;6.44
47709;PMS7003;33473;51.640;5.892;2023-07-20T19:57:59;5.77;8.51;6.88
47709;PMS7003;33473;51.640;5.892;2023-07-20T20:11:19;6.61;9.27;7.53
47709;PMS7003;33473;51.640;5.892;2023-07-20T20:24:40;7.09;9.71;8.29
47709;PMS7003;33473;51.640;5.892;2023-07-20T20:38:00;9.13;11.45;9.6
47709;PMS7003;33473;51.640;5.892;2023-07-20T20:51:21;8.53;11.02;9.17
47709;PMS7003;33473;51.640;5.892;2023-07-20T21:04:42;11.89;12.22;9.71
47709;PMS7003;33473;51.640;5.892;2023-07-20T21:18:02;10.21;12.44;9.93
47709;PMS7003;33473;51.640;5.892;2023-07-20T21:31:23;10.69;12.76;10.58
47709;PMS7003;33473;51.640;5.892;2023-07-20T21:44:44;8.17;10.69;8.62
47709;PMS7003;33473;51.640;5.892;2023-07-20T21:58:04;10.09;12.44;9.82
47709;PMS7003;33473;51.640;5.892;2023-07-20T22:11:25;10.57;12.76;10.26
47709;PMS7003;33473;51.640;5.892;2023-07-20T22:24:45;12.25;13.53;11.02
47709;PMS7003;33473;51.640;5.892;2023-07-20T22:38:05;13.57;15.6;11.45
47709;PMS7003;33473;51.640;5.892;2023-07-20T22:51:26;11.89;13.53;10.69
47709;PMS7003;33473;51.640;5.892;2023-07-20T23:04:47;12.37;14.51;11.13
47709;PMS7003;33473;51.640;5.892;2023-07-20T23:18:08;11.65;13.85;10.91
47709;PMS7003;33473;51.640;5.892;2023-07-20T23:31:28;8.65;11.02;8.84
47709;PMS7003;33473;51.640;5.892;2023-07-20T23:44:48;12.13;13.63;10.69
47709;PMS7003;33473;51.640;5.892;2023-07-20T23:58:09;10.09;12.44;9.49
